sensor_id;sensor_type;location;lat;lon;timestamp;pressure;altitude;pressure_sealevel;temperature;humidity
72438;BME280;60444;43.534;-5.674;2022-08-01T00:01:47;102033.16;;;22.13;79.87
72438;BME280;60444;43.534;-5.674;2022-08-01T00:04:13;102031.25;;;22.13;80.30
72438;BME280;60444;43.534;-5.674;2022-08-01T00:06:39;102019.72;;;22.08;80.38
72438;BME280;60444;43.534;-5.674;2022-08-01T00:09:04;102028.50;;;22.13;80.41
72438;BME280;60444;43.534;-5.674;2022-08-01T00:11:30;101999.16;;;22.01;80.25
72438;BME280;60444;43.534;-5.674;2022-08-01T00:13:55;101985.38;;;22.01;79.88
72438;BME280;60444;43.534;-5.674;2022-08-01T00:16:21;102010.59;;;22.19;79.88
72438;BME280;60444;43.534;-5.674;2022-08-01T00:18:51;102000.84;;;22.15;79.99
72438;BME280;60444;43.534;-5.674;2022-08-01T00:21:17;102011.50;;;22.19;79.63
72438;BME280;60444;43.534;-5.674;2022-08-01T00:23:43;102001.47;;;22.18;79.91
72438;BME280;60444;43.534;-5.674;2022-08-01T00:26:12;101978.16;;;22.11;80.00
72438;BME280;60444;43.534;-5.674;2022-08-01T00:28:38;101974.63;;;22.09;79.91
72438;BME280;60444;43.534;-5.674;2022-08-01T00:31:03;101998.47;;;22.21;80.05
72438;BME280;60444;43.534;-5.674;2022-08-01T00:33:29;101974.63;;;22.09;79.69
72438;BME280;60444;43.534;-5.674;2022-08-01T00:35:55;102005.72;;;22.22;80.12
72438;BME280;60444;43.534;-5.674;2022-08-01T00:38:21;101987.16;;;22.13;80.00
72438;BME280;60444;43.534;-5.674;2022-08-01T00:40:46;101990.19;;;22.21;79.91
72438;BME280;60444;43.534;-5.674;2022-08-01T00:43:15;101991.94;;;22.22;79.93
72438;BME280;60444;43.534;-5.674;2022-08-01T00:45:41;101946.28;;;21.96;80.04
72438;BME280;60444;43.534;-5.674;2022-08-01T00:48:06;101990.19;;;22.21;79.72
72438;BME280;60444;43.534;-5.674;2022-08-01T00:50:32;101988.47;;;22.20;79.74
72438;BME280;60444;43.534;-5.674;2022-08-01T00:52:59;101943.06;;;22.02;79.69
72438;BME280;60444;43.534;-5.674;2022-08-01T00:55:26;101990.97;;;22.23;79.88
72438;BME280;60444;43.534;-5.674;2022-08-01T00:57:52;101980.41;;;22.17;80.33
72438;BME280;60444;43.534;-5.674;2022-08-01T01:00:18;101974.78;;;22.19;80.67
72438;BME280;60444;43.534;-5.674;2022-08-01T01:02:43;101973.88;;;22.07;80.55
72438;BME280;60444;43.534;-5.674;2022-08-01T01:05:09;101972.09;;;22.06;80.89
72438;BME280;60444;43.534;-5.674;2022-08-01T01:08:05;101983.16;;;22.17;80.39
72438;BME280;60444;43.534;-5.674;2022-08-01T01:10:54;101968.63;;;22.15;80.51
72438;BME280;60444;43.534;-5.674;2022-08-01T01:13:29;101957.34;;;22.07;80.27
72438;BME280;60444;43.534;-5.674;2022-08-01T01:16:02;101963.50;;;22.11;80.45
72438;BME280;60444;43.534;-5.674;2022-08-01T01:18:38;101958.09;;;22.09;80.73
72438;BME280;60444;43.534;-5.674;2022-08-01T01:29:46;101966.59;;;22.06;80.95
72438;BME280;60444;43.534;-5.674;2022-08-01T01:32:18;101960.09;;;22.07;80.69
72438;BME280;60444;43.534;-5.674;2022-08-01T01:34:46;101963.19;;;22.03;80.57
72438;BME280;60444;43.534;-5.674;2022-08-01T01:37:17;101961.84;;;22.08;80.87
72438;BME280;60444;43.534;-5.674;2022-08-01T01:39:46;101938.78;;;21.98;80.56
72438;BME280;60444;43.534;-5.674;2022-08-01T01:42:13;101938.66;;;22.00;80.10
72438;BME280;60444;43.534;-5.674;2022-08-01T01:44:43;101947.69;;;22.02;80.28
72438;BME280;60444;43.534;-5.674;2022-08-01T01:47:12;101939.41;;;22.02;80.49
72438;BME280;60444;43.534;-5.674;2022-08-01T01:49:39;101908.41;;;21.87;80.49
72438;BME280;60444;43.534;-5.674;2022-08-01T01:52:07;101941.69;;;22.08;80.21
72438;BME280;60444;43.534;-5.674;2022-08-01T01:54:39;101940.81;;;22.07;80.37
72438;BME280;60444;43.534;-5.674;2022-08-01T01:57:06;101936.19;;;22.08;79.44
72438;BME280;60444;43.534;-5.674;2022-08-01T01:59:36;101860.09;;;21.59;79.56
72438;BME280;60444;43.534;-5.674;2022-08-01T02:02:05;101914.19;;;21.84;80.11
72438;BME280;60444;43.534;-5.674;2022-08-01T02:04:35;101940.75;;;21.96;79.32
72438;BME280;60444;43.534;-5.674;2022-08-01T02:07:02;101932.84;;;21.92;79.32
72438;BME280;60444;43.534;-5.674;2022-08-01T02:09:29;101946.88;;;21.89;79.82
72438;BME280;60444;43.534;-5.674;2022-08-01T02:11:57;101938.09;;;21.84;79.57
72438;BME280;60444;43.534;-5.674;2022-08-01T02:14:24;101891.22;;;21.49;79.64
72438;BME280;60444;43.534;-5.674;2022-08-01T02:16:50;101879.84;;;21.53;80.37
72438;BME280;60444;43.534;-5.674;2022-08-01T02:19:19;101923.22;;;21.74;80.73
72438;BME280;60444;43.534;-5.674;2022-08-01T02:22:16;101921.22;;;21.76;80.44
72438;BME280;60444;43.534;-5.674;2022-08-01T02:27:44;101927.41;;;21.79;80.99
72438;BME280;60444;43.534;-5.674;2022-08-01T02:30:12;101938.97;;;21.84;81.12
72438;BME280;60444;43.534;-5.674;2022-08-01T02:32:58;101939.75;;;21.86;80.79
72438;BME280;60444;43.534;-5.674;2022-08-01T02:35:28;101930.16;;;21.79;80.73
72438;BME280;60444;43.534;-5.674;2022-08-01T02:37:57;101935.22;;;21.85;80.96
72438;BME280;60444;43.534;-5.674;2022-08-01T02:40:23;101945.97;;;21.88;80.69
72438;BME280;60444;43.534;-5.674;2022-08-01T02:42:52;101937.50;;;21.91;80.87
72438;BME280;60444;43.534;-5.674;2022-08-01T02:45:22;101931.88;;;21.93;80.39
72438;BME280;60444;43.534;-5.674;2022-08-01T02:47:50;101930.00;;;21.93;80.33
72438;BME280;60444;43.534;-5.674;2022-08-01T02:50:17;101941.66;;;21.97;80.73
72438;BME280;60444;43.534;-5.674;2022-08-01T02:52:46;101936.00;;;21.98;80.25
72438;BME280;60444;43.534;-5.674;2022-08-01T02:55:14;101924.88;;;22.00;80.45
72438;BME280;60444;43.534;-5.674;2022-08-01T02:57:42;101890.38;;;21.83;80.41
72438;BME280;60444;43.534;-5.674;2022-08-01T03:00:10;101890.75;;;21.79;80.34
72438;BME280;60444;43.534;-5.674;2022-08-01T03:02:36;101907.94;;;21.93;80.31
72438;BME280;60444;43.534;-5.674;2022-08-01T03:05:03;101930.13;;;22.03;80.32
72438;BME280;60444;43.534;-5.674;2022-08-01T03:07:29;101898.16;;;21.89;80.37
72438;BME280;60444;43.534;-5.674;2022-08-01T03:09:56;101920.25;;;22.00;79.83
72438;BME280;60444;43.534;-5.674;2022-08-01T03:12:26;101901.38;;;21.83;79.96
72438;BME280;60444;43.534;-5.674;2022-08-01T03:14:55;101915.94;;;21.85;80.26
72438;BME280;60444;43.534;-5.674;2022-08-01T03:17:24;101918.34;;;21.90;80.17
72438;BME280;60444;43.534;-5.674;2022-08-01T03:19:52;101928.22;;;21.92;79.71
72438;BME280;60444;43.534;-5.674;2022-08-01T03:22:21;101875.25;;;21.65;80.31
72438;BME280;60444;43.534;-5.674;2022-08-01T03:24:52;101892.94;;;21.74;79.96
72438;BME280;60444;43.534;-5.674;2022-08-01T03:27:19;101928.22;;;21.92;80.15
72438;BME280;60444;43.534;-5.674;2022-08-01T03:29:47;101931.88;;;21.93;80.24
72438;BME280;60444;43.534;-5.674;2022-08-01T03:32:15;101894.69;;;21.75;79.91
72438;BME280;60444;43.534;-5.674;2022-08-01T03:34:42;101926.69;;;21.88;79.96
72438;BME280;60444;43.534;-5.674;2022-08-01T03:40:55;101917.19;;;21.92;80.40
72438;BME280;60444;43.534;-5.674;2022-08-01T03:42:59;101916.44;;;21.90;80.39
72438;BME280;60444;43.534;-5.674;2022-08-01T03:45:35;101912.91;;;21.88;79.88
72438;BME280;60444;43.534;-5.674;2022-08-01T03:48:06;101913.16;;;21.85;79.91
72438;BME280;60444;43.534;-5.674;2022-08-01T03:50:35;101911.06;;;21.89;80.35
72438;BME280;60444;43.534;-5.674;2022-08-01T03:53:02;101913.69;;;21.90;79.89
72438;BME280;60444;43.534;-5.674;2022-08-01T03:55:31;101886.44;;;21.75;80.03
72438;BME280;60444;43.534;-5.674;2022-08-01T03:57:59;101906.44;;;21.89;80.49
72438;BME280;60444;43.534;-5.674;2022-08-01T04:00:26;101913.69;;;21.90;79.78
72438;BME280;60444;43.534;-5.674;2022-08-01T04:02:53;101923.47;;;21.94;79.74
72438;BME280;60444;43.534;-5.674;2022-08-01T04:05:18;101924.34;;;21.95;79.34
72438;BME280;60444;43.534;-5.674;2022-08-01T04:07:49;101919.44;;;21.87;79.47
72438;BME280;60444;43.534;-5.674;2022-08-01T04:10:22;101912.66;;;21.80;79.66
72438;BME280;60444;43.534;-5.674;2022-08-01T04:12:48;101925.06;;;21.86;79.86
72438;BME280;60444;43.534;-5.674;2022-08-01T04:15:14;101920.13;;;21.78;78.98
72438;BME280;60444;43.534;-5.674;2022-08-01T04:17:40;101930.72;;;21.84;79.56
72438;BME280;60444;43.534;-5.674;2022-08-01T04:20:06;101912.53;;;21.82;79.61
72438;BME280;60444;43.534;-5.674;2022-08-01T04:22:32;101929.09;;;21.93;79.46
72438;BME280;60444;43.534;-5.674;2022-08-01T04:25:00;101928.84;;;21.96;79.68
72438;BME280;60444;43.534;-5.674;2022-08-01T04:27:34;101931.47;;;21.97;79.90
72438;BME280;60444;43.534;-5.674;2022-08-01T04:30:02;101939.03;;;21.95;79.18
72438;BME280;60444;43.534;-5.674;2022-08-01T04:32:29;101924.69;;;21.90;79.40
72438;BME280;60444;43.534;-5.674;2022-08-01T04:35:04;101905.78;;;21.86;79.95
72438;BME280;60444;43.534;-5.674;2022-08-01T04:37:31;101906.56;;;21.88;79.91
72438;BME280;60444;43.534;-5.674;2022-08-01T04:39:58;101922.50;;;21.95;79.77
72438;BME280;60444;43.534;-5.674;2022-08-01T04:42:24;101912.91;;;21.88;80.15
72438;BME280;60444;43.534;-5.674;2022-08-01T04:44:50;101909.66;;;21.83;80.30
72438;BME280;60444;43.534;-5.674;2022-08-01T04:47:16;101920.97;;;21.91;80.30
72438;BME280;60444;43.534;-5.674;2022-08-01T04:49:43;101922.72;;;21.92;80.23
72438;BME280;60444;43.534;-5.674;2022-08-01T04:52:11;101893.19;;;21.71;80.43
72438;BME280;60444;43.534;-5.674;2022-08-01T04:54:37;101896.94;;;21.70;80.62
72438;BME280;60444;43.534;-5.674;2022-08-01T04:57:04;101917.69;;;21.86;80.59
72438;BME280;60444;43.534;-5.674;2022-08-01T04:59:31;101929.19;;;21.80;80.53
72438;BME280;60444;43.534;-5.674;2022-08-01T05:02:12;101934.97;;;21.88;80.47
72438;BME280;60444;43.534;-5.674;2022-08-01T05:04:40;101927.34;;;21.92;80.79
72438;BME280;60444;43.534;-5.674;2022-08-01T05:07:06;101943.00;;;21.91;80.74
72438;BME280;60444;43.534;-5.674;2022-08-01T05:09:32;101910.53;;;21.84;80.32
72438;BME280;60444;43.534;-5.674;2022-08-01T05:12:03;101913.94;;;21.87;80.45
72438;BME280;60444;43.534;-5.674;2022-08-01T05:14:29;101933.50;;;21.95;80.73
72438;BME280;60444;43.534;-5.674;2022-08-01T05:17:02;101934.38;;;21.96;80.04
72438;BME280;60444;43.534;-5.674;2022-08-01T05:19:33;101922.38;;;21.97;80.71
72438;BME280;60444;43.534;-5.674;2022-08-01T05:21:59;101883.34;;;21.79;80.32
72438;BME280;60444;43.534;-5.674;2022-08-01T05:24:28;101915.72;;;21.99;80.05
72438;BME280;60444;43.534;-5.674;2022-08-01T05:26:56;101908.94;;;21.92;79.91
72438;BME280;60444;43.534;-5.674;2022-08-01T05:29:23;101910.31;;;21.98;80.29
72438;BME280;60444;43.534;-5.674;2022-08-01T05:31:49;101911.81;;;21.91;79.76
72438;BME280;60444;43.534;-5.674;2022-08-01T05:34:15;101899.28;;;21.87;79.74
72438;BME280;60444;43.534;-5.674;2022-08-01T05:36:41;101929.38;;;22.01;80.07
72438;BME280;60444;43.534;-5.674;2022-08-01T05:39:06;101913.72;;;22.01;79.95
72438;BME280;60444;43.534;-5.674;2022-08-01T05:41:32;101909.06;;;21.91;80.22
72438;BME280;60444;43.534;-5.674;2022-08-01T05:43:58;101919.88;;;22.05;79.87
72438;BME280;60444;43.534;-5.674;2022-08-01T05:46:23;101916.34;;;22.03;80.25
72438;BME280;60444;43.534;-5.674;2022-08-01T05:48:49;101921.00;;;22.02;79.85
72438;BME280;60444;43.534;-5.674;2022-08-01T05:51:14;101891.88;;;21.87;79.71
72438;BME280;60444;43.534;-5.674;2022-08-01T05:53:40;101917.50;;;22.00;79.56
72438;BME280;60444;43.534;-5.674;2022-08-01T05:56:05;101891.88;;;21.87;79.65
72438;BME280;60444;43.534;-5.674;2022-08-01T05:58:31;101903.72;;;22.00;79.76
72438;BME280;60444;43.534;-5.674;2022-08-01T06:00:57;101909.72;;;22.05;79.87
72438;BME280;60444;43.534;-5.674;2022-08-01T06:03:23;101887.41;;;21.97;79.53
72438;BME280;60444;43.534;-5.674;2022-08-01T06:05:51;101888.03;;;21.90;79.94
72438;BME280;60444;43.534;-5.674;2022-08-01T06:08:16;101906.22;;;22.03;80.22
72438;BME280;60444;43.534;-5.674;2022-08-01T06:10:42;101884.13;;;21.92;79.82
72438;BME280;60444;43.534;-5.674;2022-08-01T06:13:08;101897.19;;;22.01;79.77
72438;BME280;60444;43.534;-5.674;2022-08-01T06:15:34;101892.81;;;21.99;80.07
72438;BME280;60444;43.534;-5.674;2022-08-01T06:18:00;101893.19;;;22.05;80.26
72438;BME280;60444;43.534;-5.674;2022-08-01T06:20:25;101903.19;;;22.06;80.12
72438;BME280;60444;43.534;-5.674;2022-08-01T06:22:51;101881.03;;;21.97;80.09
72438;BME280;60444;43.534;-5.674;2022-08-01T06:25:18;101896.72;;;22.07;79.65
72438;BME280;60444;43.534;-5.674;2022-08-01T06:27:44;101892.81;;;22.10;79.77
72438;BME280;60444;43.534;-5.674;2022-08-01T06:30:10;101896.31;;;22.12;80.01
72438;BME280;60444;43.534;-5.674;2022-08-01T06:32:36;101891.06;;;22.09;79.89
72438;BME280;60444;43.534;-5.674;2022-08-01T06:35:02;101895.22;;;22.14;80.09
72438;BME280;60444;43.534;-5.674;2022-08-01T06:37:31;101896.94;;;22.15;79.52
72438;BME280;60444;43.534;-5.674;2022-08-01T06:40:04;101893.34;;;22.15;79.72
72438;BME280;60444;43.534;-5.674;2022-08-01T06:42:31;101893.34;;;22.15;79.40
72438;BME280;60444;43.534;-5.674;2022-08-01T06:45:03;101876.91;;;22.02;79.68
72438;BME280;60444;43.534;-5.674;2022-08-01T06:47:31;101895.84;;;22.18;79.29
72438;BME280;60444;43.534;-5.674;2022-08-01T06:49:57;101873.63;;;22.08;79.79
72438;BME280;60444;43.534;-5.674;2022-08-01T06:52:22;101913.91;;;22.22;79.31
72438;BME280;60444;43.534;-5.674;2022-08-01T06:54:48;101892.06;;;22.19;79.15
72438;BME280;60444;43.534;-5.674;2022-08-01T06:57:14;101910.00;;;22.24;79.73
72438;BME280;60444;43.534;-5.674;2022-08-01T06:59:39;101905.25;;;22.26;79.18
72438;BME280;60444;43.534;-5.674;2022-08-01T07:02:05;101887.94;;;22.13;79.10
72438;BME280;60444;43.534;-5.674;2022-08-01T07:04:31;101864.25;;;22.00;79.19
72438;BME280;60444;43.534;-5.674;2022-08-01T07:06:57;101919.78;;;22.28;79.04
72438;BME280;60444;43.534;-5.674;2022-08-01T07:09:23;101908.63;;;22.30;78.92
72438;BME280;60444;43.534;-5.674;2022-08-01T07:11:48;101917.66;;;22.32;78.98
72438;BME280;60444;43.534;-5.674;2022-08-01T07:14:16;101913.03;;;22.32;78.97
72438;BME280;60444;43.534;-5.674;2022-08-01T07:16:41;101908.41;;;22.33;79.13
72438;BME280;60444;43.534;-5.674;2022-08-01T07:19:07;101908.28;;;22.34;78.78
72438;BME280;60444;43.534;-5.674;2022-08-01T07:21:33;101919.94;;;22.38;78.76
72438;BME280;60444;43.534;-5.674;2022-08-01T07:23:59;101910.66;;;22.39;78.39
72438;BME280;60444;43.534;-5.674;2022-08-01T07:26:24;101916.03;;;22.40;78.70
72438;BME280;60444;43.534;-5.674;2022-08-01T07:28:51;101899.00;;;22.35;78.61
72438;BME280;60444;43.534;-5.674;2022-08-01T07:31:19;101911.06;;;22.45;77.53
72438;BME280;60444;43.534;-5.674;2022-08-01T07:33:46;101929.22;;;22.48;77.44
72438;BME280;60444;43.534;-5.674;2022-08-01T07:36:12;101912.66;;;22.48;77.52
72438;BME280;60444;43.534;-5.674;2022-08-01T07:38:37;101927.06;;;22.51;78.00
72438;BME280;60444;43.534;-5.674;2022-08-01T07:41:03;101934.50;;;22.51;77.84
72438;BME280;60444;43.534;-5.674;2022-08-01T07:43:28;101903.00;;;22.42;77.35
72438;BME280;60444;43.534;-5.674;2022-08-01T07:45:54;101938.88;;;22.53;77.62
72438;BME280;60444;43.534;-5.674;2022-08-01T07:48:20;101934.13;;;22.55;77.33
72438;BME280;60444;43.534;-5.674;2022-08-01T07:50:51;101930.13;;;22.59;77.00
72438;BME280;60444;43.534;-5.674;2022-08-01T07:53:16;101936.78;;;22.57;76.32
72438;BME280;60444;43.534;-5.674;2022-08-01T07:55:42;101938.38;;;22.48;76.63
72438;BME280;60444;43.534;-5.674;2022-08-01T07:58:08;101950.91;;;22.52;76.41
72438;BME280;60444;43.534;-5.674;2022-08-01T08:00:33;101969.59;;;22.49;76.91
72438;BME280;60444;43.534;-5.674;2022-08-01T08:02:59;101975.47;;;22.44;77.32
72438;BME280;60444;43.534;-5.674;2022-08-01T08:05:26;101972.69;;;22.44;78.12
72438;BME280;60444;43.534;-5.674;2022-08-01T08:07:54;101977.09;;;22.47;78.05
72438;BME280;60444;43.534;-5.674;2022-08-01T08:10:20;101954.41;;;22.32;77.83
72438;BME280;60444;43.534;-5.674;2022-08-01T08:12:45;101978.34;;;22.43;77.94
72438;BME280;60444;43.534;-5.674;2022-08-01T08:15:12;101968.06;;;22.45;78.12
72438;BME280;60444;43.534;-5.674;2022-08-01T08:17:38;101971.72;;;22.45;78.06
72438;BME280;60444;43.534;-5.674;2022-08-01T08:20:08;101975.47;;;22.44;78.23
72438;BME280;60444;43.534;-5.674;2022-08-01T08:22:34;101913.13;;;22.09;77.86
72438;BME280;60444;43.534;-5.674;2022-08-01T08:25:00;101978.97;;;22.46;77.39
72438;BME280;60444;43.534;-5.674;2022-08-01T08:27:26;101963.31;;;22.47;78.27
72438;BME280;60444;43.534;-5.674;2022-08-01T08:29:51;101967.69;;;22.49;77.75
72438;BME280;60444;43.534;-5.674;2022-08-01T08:32:17;101954.53;;;22.42;77.40
72438;BME280;60444;43.534;-5.674;2022-08-01T08:34:43;101969.22;;;22.53;77.23
72438;BME280;60444;43.534;-5.674;2022-08-01T08:37:11;101923.19;;;22.32;77.12
72438;BME280;60444;43.534;-5.674;2022-08-01T08:39:38;101956.44;;;22.52;77.61
72438;BME280;60444;43.534;-5.674;2022-08-01T08:42:07;101966.63;;;22.63;77.05
72438;BME280;60444;43.534;-5.674;2022-08-01T08:44:33;101962.13;;;22.62;77.14
72438;BME280;60444;43.534;-5.674;2022-08-01T08:47:01;101958.34;;;22.63;76.85
72438;BME280;60444;43.534;-5.674;2022-08-01T08:49:30;101964.13;;;22.60;76.95
72438;BME280;60444;43.534;-5.674;2022-08-01T08:51:59;101966.25;;;22.67;77.23
72438;BME280;60444;43.534;-5.674;2022-08-01T08:54:25;101963.59;;;22.66;77.24
72438;BME280;60444;43.534;-5.674;2022-08-01T08:56:53;101955.19;;;22.67;77.28
72438;BME280;60444;43.534;-5.674;2022-08-01T08:59:19;101963.25;;;22.71;77.66
72438;BME280;60444;43.534;-5.674;2022-08-01T09:01:45;101949.94;;;22.64;77.05
72438;BME280;60444;43.534;-5.674;2022-08-01T09:04:11;101950.44;;;22.70;77.64
72438;BME280;60444;43.534;-5.674;2022-08-01T09:06:37;101956.72;;;22.72;77.29
72438;BME280;60444;43.534;-5.674;2022-08-01T09:09:04;101973.28;;;22.83;77.61
72438;BME280;60444;43.534;-5.674;2022-08-01T09:11:30;101955.97;;;22.81;77.79
72438;BME280;60444;43.534;-5.674;2022-08-01T09:14:09;101966.03;;;22.93;77.08
72438;BME280;60444;43.534;-5.674;2022-08-01T09:16:38;101961.84;;;22.98;77.04
72438;BME280;60444;43.534;-5.674;2022-08-01T09:19:13;101965.63;;;23.08;76.78
72438;BME280;60444;43.534;-5.674;2022-08-01T09:21:56;101967.13;;;23.12;76.39
72438;BME280;60444;43.534;-5.674;2022-08-01T09:24:22;101954.94;;;23.15;76.81
72438;BME280;60444;43.534;-5.674;2022-08-01T09:26:49;101973.63;;;23.22;76.75
72438;BME280;60444;43.534;-5.674;2022-08-01T09:29:35;101970.75;;;23.13;76.49
72438;BME280;60444;43.534;-5.674;2022-08-01T09:32:05;101972.13;;;23.18;76.58
72438;BME280;60444;43.534;-5.674;2022-08-01T09:34:31;101943.19;;;23.02;76.14
72438;BME280;60444;43.534;-5.674;2022-08-01T09:36:59;101969.00;;;23.23;76.10
72438;BME280;60444;43.534;-5.674;2022-08-01T09:39:26;101976.88;;;23.27;76.84
72438;BME280;60444;43.534;-5.674;2022-08-01T09:41:56;101972.50;;;23.25;76.98
72438;BME280;60444;43.534;-5.674;2022-08-01T09:44:42;101976.38;;;23.22;77.39
72438;BME280;60444;43.534;-5.674;2022-08-01T09:47:09;101975.78;;;23.19;77.67
72438;BME280;60444;43.534;-5.674;2022-08-01T09:49:37;101976.78;;;23.18;77.72
72438;BME280;60444;43.534;-5.674;2022-08-01T09:52:18;101980.94;;;23.23;77.77
72438;BME280;60444;43.534;-5.674;2022-08-01T09:54:53;101989.94;;;23.25;78.31
72438;BME280;60444;43.534;-5.674;2022-08-01T09:57:20;101992.34;;;23.19;77.91
72438;BME280;60444;43.534;-5.674;2022-08-01T09:59:48;101995.50;;;23.14;78.21
72438;BME280;60444;43.534;-5.674;2022-08-01T10:04:52;101975.28;;;22.92;79.85
72438;BME280;60444;43.534;-5.674;2022-08-01T10:07:19;101987.97;;;22.94;78.54
72438;BME280;60444;43.534;-5.674;2022-08-01T10:09:45;101981.19;;;22.87;79.92
72438;BME280;60444;43.534;-5.674;2022-08-01T10:12:14;102008.66;;;22.89;79.74
72438;BME280;60444;43.534;-5.674;2022-08-01T10:14:42;101994.25;;;22.85;81.01
72438;BME280;60444;43.534;-5.674;2022-08-01T10:17:10;101984.09;;;22.75;80.86
72438;BME280;60444;43.534;-5.674;2022-08-01T10:19:39;102000.13;;;22.81;79.63
72438;BME280;60444;43.534;-5.674;2022-08-01T10:22:09;101990.59;;;22.85;80.30
72438;BME280;60444;43.534;-5.674;2022-08-01T10:24:37;101981.06;;;22.89;80.61
72438;BME280;60444;43.534;-5.674;2022-08-01T10:27:07;101986.06;;;22.95;80.13
72438;BME280;60444;43.534;-5.674;2022-08-01T10:29:50;101985.56;;;23.01;79.98
72438;BME280;60444;43.534;-5.674;2022-08-01T10:32:17;101982.81;;;23.01;79.77
72438;BME280;60444;43.534;-5.674;2022-08-01T10:34:43;101995.34;;;23.16;79.59
72438;BME280;60444;43.534;-5.674;2022-08-01T10:37:10;101993.09;;;23.21;78.96
72438;BME280;60444;43.534;-5.674;2022-08-01T10:39:39;102004.50;;;23.27;79.00
72438;BME280;60444;43.534;-5.674;2022-08-01T10:42:05;101994.34;;;23.28;78.56
72438;BME280;60444;43.534;-5.674;2022-08-01T10:44:35;101997.88;;;23.30;78.34
72438;BME280;60444;43.534;-5.674;2022-08-01T10:47:09;101997.22;;;23.26;78.08
72438;BME280;60444;43.534;-5.674;2022-08-01T10:49:41;102011.44;;;23.33;77.95
72438;BME280;60444;43.534;-5.674;2022-08-01T10:52:14;101995.59;;;23.35;77.95
72438;BME280;60444;43.534;-5.674;2022-08-01T10:54:40;102004.50;;;23.38;77.91
72438;BME280;60444;43.534;-5.674;2022-08-01T10:57:06;101988.56;;;23.31;77.88
72438;BME280;60444;43.534;-5.674;2022-08-01T10:59:32;102002.13;;;23.45;77.90
72438;BME280;60444;43.534;-5.674;2022-08-01T11:02:03;101993.31;;;23.51;77.87
72438;BME280;60444;43.534;-5.674;2022-08-01T11:04:58;101956.69;;;23.38;77.38
72438;BME280;60444;43.534;-5.674;2022-08-01T11:07:42;101993.28;;;23.62;76.79
72438;BME280;60444;43.534;-5.674;2022-08-01T11:10:37;101981.59;;;23.70;77.15
72438;BME280;60444;43.534;-5.674;2022-08-01T11:13:03;101979.56;;;23.72;76.98
72438;BME280;60444;43.534;-5.674;2022-08-01T11:15:33;101949.81;;;23.64;76.09
72438;BME280;60444;43.534;-5.674;2022-08-01T11:18:28;101961.72;;;23.76;76.33
72438;BME280;60444;43.534;-5.674;2022-08-01T11:20:59;101957.91;;;23.88;75.32
72438;BME280;60444;43.534;-5.674;2022-08-01T11:23:28;101948.53;;;23.79;75.34
72438;BME280;60444;43.534;-5.674;2022-08-01T11:28:23;101955.22;;;23.97;75.42
72438;BME280;60444;43.534;-5.674;2022-08-01T11:30:54;101922.50;;;23.82;74.68
72438;BME280;60444;43.534;-5.674;2022-08-01T11:38:46;101939.13;;;24.02;75.33
72438;BME280;60444;43.534;-5.674;2022-08-01T11:41:16;101902.00;;;23.84;74.73
72438;BME280;60444;43.534;-5.674;2022-08-01T11:44:01;101942.91;;;24.01;74.73
72438;BME280;60444;43.534;-5.674;2022-08-01T11:46:47;101952.50;;;24.18;74.70
72438;BME280;60444;43.534;-5.674;2022-08-01T11:52:24;101930.31;;;24.08;74.52
72438;BME280;60444;43.534;-5.674;2022-08-01T11:57:22;101948.56;;;24.41;73.67
72438;BME280;60444;43.534;-5.674;2022-08-01T11:59:55;101940.38;;;24.30;73.74
72438;BME280;60444;43.534;-5.674;2022-08-01T12:04:59;101940.69;;;24.36;73.63
72438;BME280;60444;43.534;-5.674;2022-08-01T12:07:27;101890.13;;;24.04;73.30
72438;BME280;60444;43.534;-5.674;2022-08-01T12:12:26;101959.69;;;24.50;73.54
72438;BME280;60444;43.534;-5.674;2022-08-01T12:15:01;101949.53;;;24.51;73.64
72438;BME280;60444;43.534;-5.674;2022-08-01T12:17:34;101918.84;;;24.33;73.13
72438;BME280;60444;43.534;-5.674;2022-08-01T12:20:03;101941.91;;;24.43;73.14
72438;BME280;60444;43.534;-5.674;2022-08-01T12:22:30;101944.94;;;24.40;73.64
72438;BME280;60444;43.534;-5.674;2022-08-01T12:25:05;101942.44;;;24.37;73.48
72438;BME280;60444;43.534;-5.674;2022-08-01T12:27:31;101917.88;;;24.23;73.90
72438;BME280;60444;43.534;-5.674;2022-08-01T12:29:58;101935.56;;;24.32;73.92
72438;BME280;60444;43.534;-5.674;2022-08-01T12:32:35;101892.31;;;24.10;73.44
72438;BME280;60444;43.534;-5.674;2022-08-01T12:35:06;101904.13;;;24.12;74.46
72438;BME280;60444;43.534;-5.674;2022-08-01T12:37:37;101903.88;;;24.15;74.43
72438;BME280;60444;43.534;-5.674;2022-08-01T12:40:15;101930.94;;;24.12;74.74
72438;BME280;60444;43.534;-5.674;2022-08-01T12:42:42;101928.56;;;24.07;74.33
72438;BME280;60444;43.534;-5.674;2022-08-01T12:45:11;101936.97;;;24.26;74.89
72438;BME280;60444;43.534;-5.674;2022-08-01T12:47:38;101920.94;;;24.20;73.78
72438;BME280;60444;43.534;-5.674;2022-08-01T12:50:13;101909.59;;;24.23;73.93
72438;BME280;60444;43.534;-5.674;2022-08-01T12:52:40;101933.88;;;24.20;73.81
72438;BME280;60444;43.534;-5.674;2022-08-01T12:57:35;101918.78;;;24.24;73.28
72438;BME280;60444;43.534;-5.674;2022-08-01T13:00:23;101887.81;;;24.09;72.95
72438;BME280;60444;43.534;-5.674;2022-08-01T13:02:59;101931.25;;;24.18;73.43
72438;BME280;60444;43.534;-5.674;2022-08-01T13:05:26;101910.25;;;24.16;73.16
72438;BME280;60444;43.534;-5.674;2022-08-01T13:07:52;101903.81;;;24.06;73.21
72438;BME280;60444;43.534;-5.674;2022-08-01T13:10:28;101924.22;;;24.14;73.58
72438;BME280;60444;43.534;-5.674;2022-08-01T13:12:57;101919.44;;;24.16;73.23
72438;BME280;60444;43.534;-5.674;2022-08-01T13:15:33;101915.16;;;24.03;73.96
72438;BME280;60444;43.534;-5.674;2022-08-01T13:18:02;101916.97;;;24.13;73.75
72438;BME280;60444;43.534;-5.674;2022-08-01T13:20:46;101914.81;;;24.17;73.89
72438;BME280;60444;43.534;-5.674;2022-08-01T13:23:13;101894.84;;;24.13;72.99
72438;BME280;60444;43.534;-5.674;2022-08-01T13:25:53;101911.44;;;24.13;73.64
72438;BME280;60444;43.534;-5.674;2022-08-01T13:28:26;101920.59;;;24.14;73.55